createdAt,value
2022-12-08T00:00:17.545Z,37.63
2022-12-08T00:00:50.001Z,31.30
2022-12-08T00:01:24.610Z,32.75
2022-12-08T00:01:56.579Z,34.38
2022-12-08T00:02:28.662Z,37.55
2022-12-08T00:03:00.844Z,38.55
2022-12-08T00:03:33.803Z,38.75
2022-12-08T00:04:06.556Z,42.42
2022-12-08T00:04:58.399Z,41.63
2022-12-08T00:05:48.803Z,38.15
2022-12-08T00:06:42.390Z,34.35
2022-12-08T00:07:32.845Z,38.40
2022-12-08T00:08:23.863Z,34.35
2022-12-08T00:09:14.542Z,36.85
2022-12-08T00:09:46.528Z,37.97
2022-12-08T00:10:47.217Z,40.95
2022-12-08T00:11:16.067Z,35.17
2022-12-08T00:12:11.118Z,33.53
2022-12-08T00:12:42.965Z,32.75
2022-12-08T00:13:14.822Z,32.33
2022-12-08T00:13:46.980Z,32.30
2022-12-08T00:14:19.597Z,36.58
2022-12-08T00:14:51.465Z,34.38
2022-12-08T00:15:23.313Z,40.42
2022-12-08T00:16:00.693Z,32.15
2022-12-08T00:16:32.582Z,31.00
2022-12-08T00:17:06.903Z,34.63
2022-12-08T00:17:38.838Z,31.60
2022-12-08T00:18:10.641Z,33.03
2022-12-08T00:18:42.462Z,26.73
2022-12-08T00:19:14.292Z,31.05
2022-12-08T00:19:46.221Z,37.85
2022-12-08T00:20:18.134Z,33.95
2022-12-08T00:20:58.152Z,35.33
2022-12-08T00:21:30.009Z,30.37
2022-12-08T00:22:03.197Z,35.10
2022-12-08T00:22:35.343Z,35.05
2022-12-08T00:23:07.333Z,36.05
2022-12-08T00:23:39.231Z,31.05
2022-12-08T00:24:11.274Z,33.35
2022-12-08T00:24:47.638Z,33.17
2022-12-08T00:25:19.539Z,30.77
2022-12-08T00:25:51.416Z,32.30
2022-12-08T00:26:23.754Z,32.08
2022-12-08T00:26:55.619Z,30.88
2022-12-08T00:27:28.229Z,29.85
2022-12-08T00:28:00.354Z,26.92
2022-12-08T00:28:33.475Z,30.42
2022-12-08T00:29:06.108Z,31.60
2022-12-08T00:29:38.780Z,27.23
2022-12-08T00:30:11.118Z,30.98
2022-12-08T00:30:43.617Z,29.77
2022-12-08T00:31:15.699Z,31.92
2022-12-08T00:31:47.727Z,29.45
2022-12-08T00:32:19.624Z,29.77
2022-12-08T00:32:51.516Z,33.35
2022-12-08T00:33:23.713Z,29.55
2022-12-08T00:33:55.745Z,31.67
2022-12-08T00:34:27.583Z,28.20
2022-12-08T00:34:59.389Z,29.45
2022-12-08T00:35:31.199Z,27.48
2022-12-08T00:36:10.651Z,31.77
2022-12-08T00:36:43.436Z,27.70
2022-12-08T00:37:15.267Z,43.97
2022-12-08T00:37:47.118Z,49.40
2022-12-08T00:38:18.966Z,39.63
2022-12-08T00:38:51.085Z,41.97
2022-12-08T00:39:23.063Z,36.55
2022-12-08T00:39:54.926Z,32.97
2022-12-08T00:40:26.834Z,35.72
2022-12-08T00:40:58.813Z,46.88
2022-12-08T00:41:49.185Z,37.58
2022-12-08T00:42:21.319Z,39.53
2022-12-08T00:42:53.288Z,33.97
2022-12-08T00:43:25.250Z,32.50
2022-12-08T00:43:57.457Z,30.05
2022-12-08T00:44:29.475Z,27.05
2022-12-08T00:45:01.413Z,25.58
2022-12-08T00:45:33.346Z,30.08
2022-12-08T00:46:05.435Z,29.15
2022-12-08T00:46:37.323Z,33.90
2022-12-08T00:47:09.382Z,28.75
2022-12-08T00:47:41.192Z,33.75
2022-12-08T00:48:12.997Z,30.52
2022-12-08T00:48:44.839Z,30.48
2022-12-08T00:49:17.945Z,31.40
2022-12-08T00:49:49.828Z,30.50
2022-12-08T00:50:21.700Z,32.92
2022-12-08T00:50:53.606Z,30.23
2022-12-08T00:51:25.437Z,28.67
2022-12-08T00:51:57.328Z,27.23
2022-12-08T00:52:29.270Z,27.67
2022-12-08T00:53:01.086Z,28.73
2022-12-08T00:53:32.982Z,29.60
2022-12-08T00:54:06.198Z,29.08
2022-12-08T00:54:38.574Z,28.95
2022-12-08T00:55:10.444Z,24.77
2022-12-08T00:55:43.519Z,25.45
2022-12-08T00:56:15.333Z,28.65
2022-12-08T00:56:47.283Z,23.70
2022-12-08T00:57:19.120Z,27.05
2022-12-08T00:57:51.058Z,24.55
2022-12-08T00:58:22.899Z,27.58
2022-12-08T00:58:55.000Z,24.10
2022-12-08T00:59:26.921Z,24.42
2022-12-08T00:59:59.108Z,25.65
2022-12-08T01:00:30.938Z,23.48
2022-12-08T01:01:09.554Z,29.02
2022-12-08T01:01:44.006Z,27.95
2022-12-08T01:02:15.962Z,28.05
2022-12-08T01:02:47.845Z,28.35
2022-12-08T01:03:19.904Z,23.98
2022-12-08T01:03:51.830Z,28.90
2022-12-08T01:04:23.708Z,28.35
2022-12-08T01:04:55.599Z,28.87
2022-12-08T01:05:27.718Z,28.50
2022-12-08T01:06:04.225Z,25.20
2022-12-08T01:06:36.276Z,32.08
2022-12-08T01:07:08.701Z,28.33
2022-12-08T01:07:40.781Z,23.95
2022-12-08T01:08:12.754Z,23.98
2022-12-08T01:08:45.187Z,24.75
2022-12-08T01:09:18.303Z,26.95
2022-12-08T01:09:50.174Z,24.37
2022-12-08T01:10:21.969Z,26.23
2022-12-08T01:10:54.134Z,23.00
2022-12-08T01:11:26.015Z,25.73
2022-12-08T01:11:57.850Z,28.77
2022-12-08T01:12:30.534Z,27.98
2022-12-08T01:13:02.473Z,26.83
2022-12-08T01:13:34.878Z,26.75
2022-12-08T01:14:06.958Z,29.67
2022-12-08T01:14:38.753Z,25.65
2022-12-08T01:15:10.735Z,24.42
2022-12-08T01:15:42.522Z,25.98
2022-12-08T01:16:28.632Z,26.95
2022-12-08T01:17:00.572Z,28.58
2022-12-08T01:17:32.552Z,30.33
2022-12-08T01:18:04.466Z,31.87
2022-12-08T01:18:36.934Z,25.52
2022-12-08T01:19:11.086Z,27.15
2022-12-08T01:19:43.250Z,27.65
2022-12-08T01:20:15.127Z,25.25
2022-12-08T01:20:47.059Z,26.98
2022-12-08T01:21:19.491Z,32.00
2022-12-08T01:21:51.359Z,31.75
2022-12-08T01:22:23.222Z,30.42
2022-12-08T01:22:55.038Z,26.30
2022-12-08T01:23:27.975Z,23.92
2022-12-08T01:24:00.650Z,28.58
2022-12-08T01:24:32.531Z,26.33
2022-12-08T01:25:04.702Z,25.08
2022-12-08T01:25:36.578Z,26.67
2022-12-08T01:26:10.574Z,25.92
2022-12-08T01:26:43.421Z,28.05
2022-12-08T01:27:16.261Z,28.02
2022-12-08T01:27:48.445Z,25.10
2022-12-08T01:28:20.464Z,31.15
2022-12-08T01:28:52.457Z,26.62
2022-12-08T01:29:24.350Z,25.80
2022-12-08T01:29:56.323Z,26.15
2022-12-08T01:30:28.275Z,27.52
2022-12-08T01:31:01.453Z,26.25
2022-12-08T01:31:33.333Z,24.50
2022-12-08T01:32:05.621Z,28.40
2022-12-08T01:32:37.753Z,23.98
2022-12-08T01:33:09.620Z,28.55
2022-12-08T01:33:41.621Z,26.52
2022-12-08T01:34:13.501Z,20.77
2022-12-08T01:34:45.337Z,26.77
2022-12-08T01:35:17.359Z,29.27
2022-12-08T01:35:49.492Z,26.27
2022-12-08T01:36:29.752Z,30.80
2022-12-08T01:37:01.621Z,28.50
2022-12-08T01:37:33.749Z,26.65
2022-12-08T01:38:05.661Z,24.85
2022-12-08T01:38:37.612Z,29.05
2022-12-08T01:39:16.633Z,29.08
2022-12-08T01:39:48.530Z,29.15
2022-12-08T01:40:20.444Z,31.52
2022-12-08T01:40:52.258Z,31.73
2022-12-08T01:41:26.998Z,34.88
2022-12-08T01:41:58.904Z,36.25
2022-12-08T01:42:32.421Z,36.92
2022-12-08T01:43:04.569Z,34.03
2022-12-08T01:43:58.041Z,35.78
2022-12-08T01:44:29.806Z,43.87
2022-12-08T01:45:05.319Z,44.55
2022-12-08T01:45:37.367Z,48.70
2022-12-08T01:46:09.305Z,46.30
2022-12-08T01:46:44.013Z,39.38
2022-12-08T01:47:15.893Z,42.50
2022-12-08T01:47:51.950Z,38.35
2022-12-08T01:48:27.203Z,33.35
2022-12-08T01:49:05.311Z,35.35
2022-12-08T01:49:37.539Z,37.60
2022-12-08T01:50:13.020Z,36.65
2022-12-08T01:50:46.780Z,35.65
2022-12-08T01:51:19.669Z,32.22
2022-12-08T01:51:51.496Z,35.15
2022-12-08T01:52:46.627Z,29.02
2022-12-08T01:53:32.761Z,28.98
2022-12-08T01:54:07.107Z,31.52
2022-12-08T01:54:58.345Z,26.92
2022-12-08T01:56:20.561Z,34.55
2022-12-08T01:57:07.223Z,30.37
2022-12-08T01:57:53.006Z,27.77
2022-12-08T01:58:48.058Z,34.40
2022-12-08T01:59:20.244Z,27.83
2022-12-08T02:00:02.874Z,27.27
2022-12-08T02:00:38.489Z,30.12
2022-12-08T02:01:11.334Z,30.55
2022-12-08T02:01:43.410Z,28.62
2022-12-08T02:02:15.860Z,32.90
2022-12-08T02:03:07.097Z,32.58
2022-12-08T02:04:14.042Z,30.37
2022-12-08T02:04:45.902Z,29.08
2022-12-08T02:05:20.087Z,30.83
2022-12-08T02:05:52.700Z,29.60
2022-12-08T02:06:27.710Z,28.12
2022-12-08T02:07:04.898Z,30.83
2022-12-08T02:07:39.968Z,26.73
2022-12-08T02:08:13.579Z,30.92
2022-12-08T02:08:46.037Z,29.92
2022-12-08T02:09:19.625Z,27.90
2022-12-08T02:09:53.846Z,30.50
2022-12-08T02:10:29.524Z,30.55
2022-12-08T02:11:01.650Z,28.12
2022-12-08T02:11:33.752Z,31.37
2022-12-08T02:12:05.897Z,31.98
2022-12-08T02:12:37.743Z,28.85
2022-12-08T02:13:13.236Z,31.58
2022-12-08T02:13:47.471Z,33.80
2022-12-08T02:14:19.359Z,30.52
2022-12-08T02:14:51.329Z,33.75
2022-12-08T02:15:34.074Z,34.03
2022-12-08T02:16:45.533Z,37.90
2022-12-08T02:17:27.567Z,31.40
2022-12-08T02:18:17.894Z,33.03
2022-12-08T02:19:30.334Z,36.63
2022-12-08T02:20:23.894Z,28.95
2022-12-08T02:21:09.285Z,36.30
2022-12-08T02:21:52.989Z,35.42
2022-12-08T02:22:58.646Z,35.08
2022-12-08T02:23:59.354Z,35.05
2022-12-08T02:25:03.421Z,32.78
2022-12-08T02:25:35.227Z,36.38
2022-12-08T02:26:39.346Z,37.85
2022-12-08T02:27:20.138Z,37.00
2022-12-08T02:28:22.314Z,46.15
2022-12-08T02:29:17.110Z,37.28
2022-12-08T02:30:04.826Z,36.65
2022-12-08T02:30:59.937Z,38.58
2022-12-08T02:31:43.895Z,36.72
2022-12-08T02:32:24.443Z,40.25
2022-12-08T02:33:50.115Z,37.72
2022-12-08T02:34:24.747Z,40.33
2022-12-08T02:35:05.495Z,37.95
2022-12-08T02:37:06.767Z,37.72
2022-12-08T02:37:50.234Z,43.05
2022-12-08T02:38:28.453Z,44.42
2022-12-08T02:39:23.389Z,40.10
2022-12-08T02:40:33.191Z,38.47
2022-12-08T02:41:36.408Z,44.70
2022-12-08T02:42:30.314Z,40.08
2022-12-08T02:43:16.954Z,42.17
2022-12-08T02:43:59.961Z,38.88
2022-12-08T02:44:35.645Z,36.63
2022-12-08T02:45:15.361Z,37.97
2022-12-08T02:46:00.209Z,36.60
2022-12-08T02:46:45.239Z,34.38
2022-12-08T02:47:20.408Z,32.78
2022-12-08T02:47:52.681Z,30.42
2022-12-08T02:48:28.462Z,28.42
2022-12-08T02:49:02.244Z,29.25
2022-12-08T02:49:35.565Z,28.62
2022-12-08T02:50:08.305Z,29.83
2022-12-08T02:50:40.149Z,27.55
2022-12-08T02:51:12.002Z,29.02
2022-12-08T02:51:43.828Z,26.02
2022-12-08T02:52:15.649Z,28.20
2022-12-08T02:52:48.764Z,27.60
2022-12-08T02:53:20.646Z,26.70
2022-12-08T02:53:52.793Z,29.20
2022-12-08T02:54:25.090Z,28.10
2022-12-08T02:54:58.730Z,26.17
2022-12-08T02:55:56.509Z,31.25
2022-12-08T02:56:36.835Z,27.73
2022-12-08T02:57:11.503Z,25.15
2022-12-08T02:57:45.969Z,27.77
2022-12-08T02:58:39.330Z,28.45
2022-12-08T02:59:46.147Z,26.83
2022-12-08T03:00:23.568Z,27.80
2022-12-08T03:01:01.628Z,27.67
2022-12-08T03:02:03.381Z,30.52
2022-12-08T03:02:53.915Z,31.67
2022-12-08T03:04:10.383Z,28.45
2022-12-08T03:05:03.290Z,35.67
2022-12-08T03:05:55.386Z,32.38
2022-12-08T03:06:47.541Z,30.55
2022-12-08T03:07:19.369Z,29.75
2022-12-08T03:08:04.449Z,33.65
2022-12-08T03:08:49.865Z,27.87
2022-12-08T03:09:24.459Z,30.40
2022-12-08T03:10:03.552Z,33.63
2022-12-08T03:10:46.515Z,27.85
2022-12-08T03:11:24.821Z,34.13
2022-12-08T03:12:03.439Z,32.42
2022-12-08T03:12:41.713Z,35.88
2022-12-08T03:13:20.453Z,35.75
2022-12-08T03:13:56.230Z,31.00
2022-12-08T03:14:30.438Z,35.38
2022-12-08T03:15:09.547Z,34.05
2022-12-08T03:15:45.472Z,34.38
2022-12-08T03:16:22.708Z,32.22
2022-12-08T03:16:57.945Z,35.67
2022-12-08T03:17:31.740Z,37.25
2022-12-08T03:18:06.533Z,36.47
2022-12-08T03:18:44.207Z,34.72
2022-12-08T03:19:26.631Z,34.35
2022-12-08T03:20:04.816Z,35.15
2022-12-08T03:20:38.488Z,28.70
2022-12-08T03:21:12.112Z,33.03
2022-12-08T03:21:46.333Z,33.45
2022-12-08T03:22:27.595Z,31.10
2022-12-08T03:23:02.270Z,33.10
2022-12-08T03:23:38.157Z,30.73
2022-12-08T03:24:11.270Z,28.23
2022-12-08T03:24:45.907Z,30.10
2022-12-08T03:25:21.379Z,33.05
2022-12-08T03:26:18.569Z,37.78
2022-12-08T03:26:56.948Z,27.30
2022-12-08T03:27:31.626Z,32.75
2022-12-08T03:28:03.597Z,29.92
2022-12-08T03:28:35.518Z,28.67
2022-12-08T03:29:08.164Z,29.35
2022-12-08T03:29:40.532Z,27.75
2022-12-08T03:30:12.810Z,28.38
2022-12-08T03:30:48.244Z,29.85
2022-12-08T03:31:23.901Z,25.55
2022-12-08T03:32:09.117Z,30.65
2022-12-08T03:32:55.372Z,29.27
2022-12-08T03:33:32.971Z,30.27
2022-12-08T03:34:05.730Z,28.35
2022-12-08T03:34:40.469Z,32.90
2022-12-08T03:35:15.914Z,27.62
2022-12-08T03:35:48.066Z,30.27
2022-12-08T03:36:20.960Z,27.20
2022-12-08T03:36:52.778Z,34.15
2022-12-08T03:37:27.153Z,32.33
2022-12-08T03:38:08.132Z,26.50
2022-12-08T03:38:43.397Z,27.90
2022-12-08T03:39:15.258Z,28.58
2022-12-08T03:39:47.551Z,30.83
2022-12-08T03:40:20.645Z,30.37
2022-12-08T03:41:11.201Z,31.17
2022-12-08T03:41:43.109Z,25.95
2022-12-08T03:42:14.964Z,26.62
2022-12-08T03:42:47.196Z,27.65
2022-12-08T03:43:19.019Z,29.15
2022-12-08T03:43:53.357Z,27.50
2022-12-08T03:44:25.197Z,25.48
2022-12-08T03:44:57.076Z,31.75
2022-12-08T03:45:29.078Z,27.00
2022-12-08T03:46:01.023Z,28.50
2022-12-08T03:46:32.911Z,31.50
2022-12-08T03:47:04.997Z,26.40
2022-12-08T03:47:37.533Z,26.10
2022-12-08T03:48:09.681Z,24.85
2022-12-08T03:48:41.603Z,29.90
2022-12-08T03:49:13.435Z,27.17
2022-12-08T03:49:45.238Z,30.85
2022-12-08T03:50:17.095Z,28.27
2022-12-08T03:50:48.881Z,31.02
2022-12-08T03:51:22.174Z,28.17
2022-12-08T03:51:53.979Z,29.90
2022-12-08T03:52:25.809Z,29.25
2022-12-08T03:52:57.665Z,31.20
2022-12-08T03:53:29.825Z,27.92
2022-12-08T03:54:01.674Z,31.00
2022-12-08T03:54:33.560Z,35.08
2022-12-08T03:55:05.845Z,44.75
2022-12-08T03:55:37.730Z,44.35
2022-12-08T03:56:15.788Z,39.78
2022-12-08T03:56:47.724Z,34.00
2022-12-08T03:57:19.627Z,34.83
2022-12-08T03:57:51.434Z,31.45
2022-12-08T03:58:23.269Z,30.23
2022-12-08T03:58:56.007Z,27.27
2022-12-08T03:59:27.825Z,26.48
2022-12-08T03:59:59.649Z,28.60
2022-12-08T04:00:31.491Z,25.52
2022-12-08T04:01:03.652Z,28.75
2022-12-08T04:01:35.598Z,25.60
2022-12-08T04:02:07.543Z,30.02
2022-12-08T04:02:39.592Z,26.05
2022-12-08T04:03:11.561Z,25.73
2022-12-08T04:03:43.742Z,26.92
2022-12-08T04:04:15.626Z,30.95
2022-12-08T04:04:47.717Z,27.52
2022-12-08T04:05:19.558Z,27.35
2022-12-08T04:05:51.396Z,25.45
2022-12-08T04:06:24.378Z,34.67
2022-12-08T04:06:56.225Z,27.55
2022-12-08T04:07:28.092Z,37.15
2022-12-08T04:08:01.195Z,29.65
2022-12-08T04:08:33.173Z,36.88
2022-12-08T04:09:05.094Z,32.03
2022-12-08T04:09:36.962Z,34.92
2022-12-08T04:10:09.394Z,32.03
2022-12-08T04:10:41.258Z,31.02
2022-12-08T04:11:13.213Z,32.40
2022-12-08T04:11:45.485Z,40.92
2022-12-08T04:12:17.459Z,37.08
2022-12-08T04:12:49.428Z,38.03
2022-12-08T04:13:21.601Z,33.83
2022-12-08T04:13:53.452Z,35.15
2022-12-08T04:14:25.328Z,37.35
2022-12-08T04:14:57.135Z,35.40
2022-12-08T04:15:28.956Z,32.80
2022-12-08T04:16:00.959Z,32.35
2022-12-08T04:16:32.978Z,34.40
2022-12-08T04:17:05.231Z,33.78
2022-12-08T04:17:37.092Z,39.13
2022-12-08T04:18:08.906Z,34.08
2022-12-08T04:18:40.717Z,42.85
2022-12-08T04:19:12.509Z,34.92
2022-12-08T04:19:44.309Z,34.53
2022-12-08T04:20:16.103Z,36.22
2022-12-08T04:20:47.956Z,30.88
2022-12-08T04:21:20.077Z,36.55
2022-12-08T04:21:51.933Z,33.75
2022-12-08T04:22:24.121Z,37.75
2022-12-08T04:22:56.071Z,32.75
2022-12-08T04:23:28.282Z,31.42
2022-12-08T04:24:01.447Z,29.87
2022-12-08T04:24:33.531Z,30.45
2022-12-08T04:25:06.039Z,30.88
2022-12-08T04:25:38.144Z,29.55
2022-12-08T04:26:10.490Z,28.65
2022-12-08T04:26:42.347Z,26.95
2022-12-08T04:27:14.210Z,33.17
2022-12-08T04:27:46.327Z,28.75
2022-12-08T04:28:18.207Z,31.85
2022-12-08T04:28:49.993Z,34.03
2022-12-08T04:29:21.932Z,32.45
2022-12-08T04:29:53.768Z,29.92
2022-12-08T04:30:25.577Z,28.83
2022-12-08T04:30:57.790Z,26.87
2022-12-08T04:31:29.748Z,27.40
2022-12-08T04:32:01.695Z,30.10
2022-12-08T04:32:33.538Z,30.35
2022-12-08T04:33:06.106Z,32.75
2022-12-08T04:33:38.498Z,33.33
2022-12-08T04:34:10.439Z,32.28
2022-12-08T04:34:42.276Z,30.40
2022-12-08T04:35:14.182Z,34.90
2022-12-08T04:35:46.022Z,31.55
2022-12-08T04:36:17.838Z,32.58
2022-12-08T04:36:49.682Z,32.95
2022-12-08T04:37:21.501Z,30.00
2022-12-08T04:37:53.378Z,32.08
2022-12-08T04:38:25.571Z,31.23
2022-12-08T04:38:58.136Z,36.72
2022-12-08T04:39:29.984Z,32.90
2022-12-08T04:40:02.152Z,35.22
2022-12-08T04:40:34.261Z,32.50
2022-12-08T04:41:06.339Z,37.42
2022-12-08T04:41:38.178Z,33.03
2022-12-08T04:42:10.041Z,37.58
2022-12-08T04:42:42.870Z,35.28
2022-12-08T04:43:14.721Z,33.78
2022-12-08T04:43:46.892Z,36.75
2022-12-08T04:44:18.915Z,38.13
2022-12-08T04:44:50.712Z,32.42
2022-12-08T04:45:22.671Z,35.00
2022-12-08T04:45:54.505Z,42.92
2022-12-08T04:46:26.424Z,43.67
2022-12-08T04:46:58.436Z,49.13
2022-12-08T04:47:30.296Z,44.03
2022-12-08T04:48:02.894Z,51.37
2022-12-08T04:48:36.958Z,43.00
2022-12-08T04:49:09.101Z,45.80
2022-12-08T04:49:40.963Z,49.08
2022-12-08T04:50:13.270Z,55.67
2022-12-08T04:50:46.004Z,55.88
2022-12-08T04:51:20.042Z,55.12
2022-12-08T04:51:51.868Z,46.47
2022-12-08T04:52:23.731Z,49.38
2022-12-08T04:52:55.613Z,46.30
2022-12-08T04:53:27.490Z,51.37
2022-12-08T04:53:59.404Z,49.30
2022-12-08T04:54:31.629Z,47.25
2022-12-08T04:55:04.200Z,44.67
2022-12-08T04:55:43.795Z,51.13
2022-12-08T04:56:17.793Z,58.03
2022-12-08T04:56:49.604Z,66.37
2022-12-08T04:57:21.528Z,65.28
2022-12-08T04:57:53.355Z,57.00
2022-12-08T04:58:25.225Z,57.83
2022-12-08T04:58:57.031Z,55.78
2022-12-08T04:59:28.897Z,48.87
2022-12-08T05:00:01.191Z,55.53
2022-12-08T05:00:33.627Z,50.35
2022-12-08T05:01:05.803Z,44.20
2022-12-08T05:01:37.786Z,48.25
2022-12-08T05:02:09.992Z,49.38
2022-12-08T05:02:42.048Z,49.13
2022-12-08T05:03:15.068Z,47.80
2022-12-08T05:03:46.918Z,51.90
2022-12-08T05:04:18.748Z,44.00
2022-12-08T05:04:50.583Z,41.28
2022-12-08T05:05:22.862Z,35.50
2022-12-08T05:05:54.771Z,38.17
2022-12-08T05:06:26.659Z,40.05
2022-12-08T05:06:58.572Z,38.58
2022-12-08T05:07:30.447Z,41.05
2022-12-08T05:08:02.598Z,38.15
2022-12-08T05:08:34.621Z,42.60
2022-12-08T05:09:06.523Z,41.83
2022-12-08T05:09:38.436Z,41.25
2022-12-08T05:10:10.371Z,39.58
2022-12-08T05:10:42.503Z,40.20
2022-12-08T05:11:14.396Z,39.92
2022-12-08T05:11:49.088Z,38.33
2022-12-08T05:12:21.246Z,37.80
2022-12-08T05:12:53.230Z,37.58
2022-12-08T05:13:25.060Z,40.22
2022-12-08T05:13:56.870Z,40.15
2022-12-08T05:14:28.703Z,35.17
2022-12-08T05:15:00.536Z,37.38
2022-12-08T05:15:32.404Z,41.53
2022-12-08T05:16:10.816Z,44.40
2022-12-08T05:16:43.349Z,41.13
2022-12-08T05:17:16.883Z,38.00
2022-12-08T05:17:48.733Z,38.83
2022-12-08T05:18:20.547Z,37.75
2022-12-08T05:18:52.380Z,42.58
2022-12-08T05:19:24.438Z,36.47
2022-12-08T05:19:56.303Z,32.25
2022-12-08T05:20:28.346Z,28.15
2022-12-08T05:21:00.334Z,33.53
2022-12-08T05:21:32.502Z,30.77
2022-12-08T05:22:04.353Z,29.63
2022-12-08T05:22:39.276Z,30.45
2022-12-08T05:23:14.285Z,33.05
2022-12-08T05:24:02.599Z,34.70
2022-12-08T05:24:34.914Z,26.10
2022-12-08T05:25:06.997Z,28.48
2022-12-08T05:25:38.824Z,28.10
2022-12-08T05:26:10.687Z,29.02
2022-12-08T05:26:42.935Z,29.45
2022-12-08T05:27:15.386Z,29.45
2022-12-08T05:27:47.216Z,26.02
2022-12-08T05:28:44.445Z,28.27
2022-12-08T05:29:17.384Z,26.92
2022-12-08T05:29:50.397Z,25.92
2022-12-08T05:30:23.401Z,26.83
2022-12-08T05:30:55.262Z,30.08
2022-12-08T05:31:27.289Z,25.08
2022-12-08T05:31:59.477Z,30.25
2022-12-08T05:32:31.380Z,28.12
2022-12-08T05:33:07.584Z,29.92
2022-12-08T05:33:43.776Z,31.30
2022-12-08T05:34:15.646Z,32.55
2022-12-08T05:34:47.480Z,26.87
2022-12-08T05:35:19.321Z,30.88
2022-12-08T05:35:51.144Z,28.45
2022-12-08T05:36:23.058Z,30.08
2022-12-08T05:36:55.505Z,27.73
2022-12-08T05:37:27.660Z,32.92
2022-12-08T05:37:59.490Z,34.72
2022-12-08T05:38:31.315Z,28.35
2022-12-08T05:39:03.568Z,27.00
2022-12-08T05:39:35.507Z,27.55
2022-12-08T05:40:08.192Z,31.25
2022-12-08T05:40:41.631Z,30.23
2022-12-08T05:41:19.730Z,29.83
2022-12-08T05:41:51.593Z,30.92
2022-12-08T05:42:25.105Z,29.90
2022-12-08T05:42:57.421Z,28.48
2022-12-08T05:43:29.387Z,30.60
2022-12-08T05:44:01.247Z,31.60
2022-12-08T05:44:33.153Z,34.95
2022-12-08T05:45:05.609Z,29.37
2022-12-08T05:45:37.594Z,30.40
2022-12-08T05:46:09.642Z,27.10
2022-12-08T05:46:41.669Z,31.37
2022-12-08T05:47:13.465Z,30.85
2022-12-08T05:47:45.306Z,32.30
2022-12-08T05:48:17.469Z,32.78
2022-12-08T05:48:49.301Z,28.02
2022-12-08T05:49:21.142Z,28.23
2022-12-08T05:49:53.339Z,33.13
2022-12-08T05:50:25.179Z,38.38
2022-12-08T05:51:00.982Z,30.95
2022-12-08T05:51:33.189Z,27.77
2022-12-08T05:52:05.202Z,29.52
2022-12-08T05:52:37.050Z,29.15
2022-12-08T05:53:08.864Z,31.92
2022-12-08T05:53:41.032Z,29.98
2022-12-08T05:54:14.180Z,32.55
2022-12-08T05:54:46.065Z,29.65
2022-12-08T05:55:17.881Z,30.73
2022-12-08T05:55:49.764Z,28.45
2022-12-08T05:56:22.183Z,27.85
2022-12-08T05:56:54.040Z,30.33
2022-12-08T05:57:25.866Z,28.33
2022-12-08T05:57:57.727Z,30.23
2022-12-08T05:58:30.006Z,34.08
2022-12-08T05:59:04.933Z,30.00
2022-12-08T05:59:37.616Z,29.08
2022-12-08T06:00:10.718Z,28.62
2022-12-08T06:00:44.881Z,33.47
2022-12-08T06:01:30.407Z,34.72
2022-12-08T06:02:02.447Z,33.13
2022-12-08T06:02:35.647Z,32.63
2022-12-08T06:03:08.069Z,33.88
2022-12-08T06:03:39.930Z,27.33
2022-12-08T06:04:11.732Z,30.75
2022-12-08T06:04:43.566Z,32.92
2022-12-08T06:05:15.735Z,38.08
2022-12-08T06:05:47.955Z,29.87
2022-12-08T06:06:20.547Z,30.17
2022-12-08T06:06:52.451Z,37.80
2022-12-08T06:07:24.236Z,33.75
2022-12-08T06:07:56.174Z,36.92
2022-12-08T06:08:28.192Z,34.60
2022-12-08T06:09:00.166Z,37.83
2022-12-08T06:09:32.046Z,36.25
2022-12-08T06:10:05.085Z,36.67
2022-12-08T06:10:41.597Z,33.33
2022-12-08T06:11:23.603Z,38.13
2022-12-08T06:11:55.761Z,34.92
2022-12-08T06:12:27.595Z,38.53
2022-12-08T06:12:59.678Z,44.38
2022-12-08T06:13:31.493Z,69.65
2022-12-08T06:14:03.502Z,84.10
2022-12-08T06:14:35.419Z,83.05
2022-12-08T06:15:08.098Z,57.22
2022-12-08T06:15:41.070Z,49.47
2022-12-08T06:16:13.025Z,41.85
2022-12-08T06:16:44.915Z,35.83
2022-12-08T06:17:17.054Z,34.30
2022-12-08T06:17:48.946Z,35.70
2022-12-08T06:18:20.792Z,34.88
2022-12-08T06:18:52.768Z,35.70
2022-12-08T06:19:24.618Z,32.78
2022-12-08T06:19:56.512Z,31.70
2022-12-08T06:20:29.159Z,40.90
2022-12-08T06:21:09.080Z,36.45
2022-12-08T06:21:40.992Z,36.05
2022-12-08T06:22:12.860Z,33.83
2022-12-08T06:22:45.038Z,37.95
2022-12-08T06:23:16.862Z,32.25
2022-12-08T06:23:53.234Z,34.30
2022-12-08T06:24:25.206Z,34.83
2022-12-08T06:24:57.267Z,32.78
2022-12-08T06:25:29.154Z,35.92
2022-12-08T06:26:02.945Z,36.88
2022-12-08T06:26:36.118Z,36.85
2022-12-08T06:27:07.990Z,39.72
2022-12-08T06:27:39.861Z,37.30
2022-12-08T06:28:11.998Z,36.03
2022-12-08T06:28:44.161Z,36.33
2022-12-08T06:29:15.992Z,34.00
2022-12-08T06:29:47.801Z,34.08
2022-12-08T06:30:19.737Z,37.33
2022-12-08T06:30:51.593Z,38.67
2022-12-08T06:31:25.684Z,38.10
2022-12-08T06:31:57.699Z,34.90
2022-12-08T06:32:29.737Z,37.47
2022-12-08T06:33:01.595Z,37.53
2022-12-08T06:33:33.773Z,35.75
2022-12-08T06:34:06.191Z,37.35
2022-12-08T06:34:38.029Z,33.67
2022-12-08T06:35:09.921Z,36.25
2022-12-08T06:35:41.731Z,24.35
2022-12-08T06:36:15.220Z,22.33
2022-12-08T06:36:47.039Z,59.78
2022-12-08T06:37:19.412Z,49.92
2022-12-08T06:37:51.816Z,38.67
2022-12-08T06:38:23.722Z,38.42
2022-12-08T06:38:56.434Z,35.25
2022-12-08T06:39:28.304Z,39.33
2022-12-08T06:40:00.157Z,35.90
2022-12-08T06:40:32.017Z,35.17
2022-12-08T06:41:05.772Z,35.88
2022-12-08T06:41:57.617Z,32.63
2022-12-08T06:42:44.776Z,41.37
2022-12-08T06:43:16.584Z,30.80
2022-12-08T06:43:48.424Z,34.05
2022-12-08T06:44:20.521Z,36.05
2022-12-08T06:44:52.621Z,31.50
2022-12-08T06:45:24.538Z,32.30
2022-12-08T06:45:56.429Z,32.55
2022-12-08T06:46:28.434Z,35.38
2022-12-08T06:47:00.273Z,33.42
2022-12-08T06:47:32.093Z,37.03
2022-12-08T06:48:04.084Z,40.15
2022-12-08T06:48:36.305Z,39.83
2022-12-08T06:49:08.117Z,36.20
2022-12-08T06:49:40.609Z,37.22
2022-12-08T06:50:13.462Z,41.55
2022-12-08T06:50:45.530Z,38.03
2022-12-08T06:51:20.493Z,36.90
2022-12-08T06:51:52.331Z,36.88
2022-12-08T06:52:24.160Z,36.58
2022-12-08T06:53:04.868Z,41.15
2022-12-08T06:53:38.597Z,35.25
2022-12-08T06:54:10.551Z,38.42
2022-12-08T06:54:42.766Z,38.38
2022-12-08T06:55:35.530Z,40.72
2022-12-08T06:56:07.953Z,40.80
2022-12-08T06:56:39.784Z,36.63
2022-12-08T06:57:11.658Z,35.80
2022-12-08T06:57:43.505Z,39.67
2022-12-08T06:58:15.349Z,44.75
2022-12-08T06:58:52.468Z,37.70
2022-12-08T06:59:26.169Z,39.63
2022-12-08T06:59:58.310Z,38.10
2022-12-08T07:00:30.436Z,37.40
2022-12-08T07:01:11.764Z,36.08
2022-12-08T07:01:43.701Z,36.65
2022-12-08T07:02:16.011Z,38.70
2022-12-08T07:02:47.936Z,38.30
2022-12-08T07:03:19.798Z,38.17
2022-12-08T07:03:51.753Z,36.85
2022-12-08T07:04:23.919Z,43.60
2022-12-08T07:04:55.781Z,42.70
2022-12-08T07:05:27.956Z,38.72
2022-12-08T07:06:03.827Z,41.30
2022-12-08T07:06:36.133Z,40.05
2022-12-08T07:07:08.087Z,45.25
2022-12-08T07:07:40.101Z,40.28
2022-12-08T07:08:12.081Z,44.50
2022-12-08T07:08:44.291Z,52.42
2022-12-08T07:09:16.111Z,43.30
2022-12-08T07:09:48.004Z,49.92
2022-12-08T07:10:20.093Z,39.40
2022-12-08T07:10:52.576Z,46.05
2022-12-08T07:11:24.403Z,39.95
2022-12-08T07:11:56.235Z,41.75
2022-12-08T07:12:28.072Z,42.40
2022-12-08T07:12:59.934Z,37.85
2022-12-08T07:13:31.753Z,39.45
2022-12-08T07:14:03.577Z,46.15
2022-12-08T07:14:35.490Z,41.30
2022-12-08T07:15:08.199Z,41.08
2022-12-08T07:15:40.199Z,43.87
2022-12-08T07:16:12.719Z,39.88
2022-12-08T07:16:44.714Z,43.10
2022-12-08T07:17:16.667Z,38.17
2022-12-08T07:17:49.018Z,40.25
2022-12-08T07:18:20.937Z,42.53
2022-12-08T07:18:52.775Z,45.58
2022-12-08T07:19:24.665Z,41.75
2022-12-08T07:19:56.494Z,44.20
2022-12-08T07:20:28.553Z,43.85
2022-12-08T07:21:06.093Z,41.28
2022-12-08T07:21:38.279Z,44.88
2022-12-08T07:22:10.179Z,44.97
2022-12-08T07:22:42.202Z,43.10
2022-12-08T07:23:14.203Z,45.83
2022-12-08T07:23:50.208Z,49.28
2022-12-08T07:24:26.094Z,53.65
2022-12-08T07:24:57.951Z,52.75
2022-12-08T07:25:29.974Z,51.53
2022-12-08T07:26:04.111Z,56.78
2022-12-08T07:26:35.978Z,56.63
2022-12-08T07:27:08.157Z,46.50
2022-12-08T07:27:40.009Z,46.50
2022-12-08T07:28:11.893Z,38.25